sensor_id;sensor_type;location;lat;lon;timestamp;pressure;altitude;pressure_sealevel;temperature;humidity
60417;BME280;46263;44.726;10.396;2024-03-02T00:00:19;99568.97;;;15.49;100.00
60417;BME280;46263;44.726;10.396;2024-03-02T00:02:49;99574.59;;;15.49;100.00
60417;BME280;46263;44.726;10.396;2024-03-02T00:05:17;99576.84;;;15.51;100.00
60417;BME280;46263;44.726;10.396;2024-03-02T00:07:54;99568.88;;;15.57;100.00
60417;BME280;46263;44.726;10.396;2024-03-02T00:10:22;99575.34;;;15.50;100.00
60417;BME280;46263;44.726;10.396;2024-03-02T00:12:55;99577.66;;;15.44;100.00
60417;BME280;46263;44.726;10.396;2024-03-02T00:17:57;99581.44;;;15.39;100.00
60417;BME280;46263;44.726;10.396;2024-03-02T00:20:24;99578.47;;;15.37;100.00
60417;BME280;46263;44.726;10.396;2024-03-02T00:23:02;99580.88;;;15.40;100.00
60417;BME280;46263;44.726;10.396;2024-03-02T00:25:42;99578.38;;;15.44;100.00
60417;BME280;46263;44.726;10.396;2024-03-02T00:28:20;99579.88;;;15.45;100.00
60417;BME280;46263;44.726;10.396;2024-03-02T00:30:50;99583.28;;;15.44;100.00
60417;BME280;46263;44.726;10.396;2024-03-02T00:33:19;99588.50;;;15.47;100.00
60417;BME280;46263;44.726;10.396;2024-03-02T00:35:45;99583.69;;;15.40;100.00
60417;BME280;46263;44.726;10.396;2024-03-02T00:38:10;99588.31;;;15.45;100.00
60417;BME280;46263;44.726;10.396;2024-03-02T00:40:36;99590.97;;;15.43;100.00
60417;BME280;46263;44.726;10.396;2024-03-02T00:43:02;99585.50;;;15.45;100.00
60417;BME280;46263;44.726;10.396;2024-03-02T00:45:31;99590.56;;;15.47;100.00
60417;BME280;46263;44.726;10.396;2024-03-02T00:47:57;99590.19;;;15.50;100.00
60417;BME280;46263;44.726;10.396;2024-03-02T00:50:22;99581.72;;;15.50;100.00
60417;BME280;46263;44.726;10.396;2024-03-02T00:52:48;99589.59;;;15.52;100.00
60417;BME280;46263;44.726;10.396;2024-03-02T00:55:14;99583.38;;;15.53;100.00
60417;BME280;46263;44.726;10.396;2024-03-02T00:57:39;99581.56;;;15.48;100.00
60417;BME280;46263;44.726;10.396;2024-03-02T01:00:06;99590.00;;;15.48;100.00
60417;BME280;46263;44.726;10.396;2024-03-02T01:02:35;99589.66;;;15.44;100.00
60417;BME280;46263;44.726;10.396;2024-03-02T01:05:00;99591.91;;;15.46;100.00
60417;BME280;46263;44.726;10.396;2024-03-02T01:07:26;99590.97;;;15.43;100.00
60417;BME280;46263;44.726;10.396;2024-03-02T01:09:53;99591.31;;;15.47;100.00
60417;BME280;46263;44.726;10.396;2024-03-02T01:12:18;99591.16;;;15.45;100.00
60417;BME280;46263;44.726;10.396;2024-03-02T01:14:44;99594.19;;;15.40;100.00
60417;BME280;46263;44.726;10.396;2024-03-02T01:17:09;99588.97;;;15.36;100.00
60417;BME280;46263;44.726;10.396;2024-03-02T01:19:35;99594.25;;;15.32;100.00
60417;BME280;46263;44.726;10.396;2024-03-02T01:22:00;99601.44;;;15.26;100.00
60417;BME280;46263;44.726;10.396;2024-03-02T01:24:26;99597.47;;;15.29;100.00
60417;BME280;46263;44.726;10.396;2024-03-02T01:26:51;99592.34;;;15.35;100.00
60417;BME280;46263;44.726;10.396;2024-03-02T01:29:17;99595.06;;;15.25;100.00
60417;BME280;46263;44.726;10.396;2024-03-02T01:31:42;99594.66;;;15.29;100.00
60417;BME280;46263;44.726;10.396;2024-03-02T01:34:08;99589.13;;;15.38;100.00
60417;BME280;46263;44.726;10.396;2024-03-02T01:36:34;99593.84;;;15.36;100.00
60417;BME280;46263;44.726;10.396;2024-03-02T01:38:59;99586.31;;;15.38;100.00
60417;BME280;46263;44.726;10.396;2024-03-02T01:41:25;99581.69;;;15.33;100.00
60417;BME280;46263;44.726;10.396;2024-03-02T01:43:50;99592.69;;;15.39;100.00
60417;BME280;46263;44.726;10.396;2024-03-02T01:46:16;99586.31;;;15.38;100.00
60417;BME280;46263;44.726;10.396;2024-03-02T01:48:42;99592.13;;;15.40;100.00
60417;BME280;46263;44.726;10.396;2024-03-02T01:51:07;99588.72;;;15.42;100.00
60417;BME280;46263;44.726;10.396;2024-03-02T01:53:34;99583.28;;;15.44;100.00
60417;BME280;46263;44.726;10.396;2024-03-02T01:55:59;99588.31;;;15.45;100.00
60417;BME280;46263;44.726;10.396;2024-03-02T01:58:27;99590.97;;;15.43;100.00
60417;BME280;46263;44.726;10.396;2024-03-02T02:00:52;99587.66;;;15.37;100.00
60417;BME280;46263;44.726;10.396;2024-03-02T02:03:18;99589.72;;;15.37;100.00
60417;BME280;46263;44.726;10.396;2024-03-02T02:05:43;99587.06;;;15.39;100.00
60417;BME280;46263;44.726;10.396;2024-03-02T02:08:09;99592.69;;;15.39;100.00
60417;BME280;46263;44.726;10.396;2024-03-02T02:10:34;99588.56;;;15.40;100.00
60417;BME280;46263;44.726;10.396;2024-03-02T02:13:00;99592.00;;;15.31;100.00
60417;BME280;46263;44.726;10.396;2024-03-02T02:15:27;99596.56;;;15.26;100.00
60417;BME280;46263;44.726;10.396;2024-03-02T02:17:54;99591.03;;;15.36;100.00
60417;BME280;46263;44.726;10.396;2024-03-02T02:20:20;99583.19;;;15.34;100.00
60417;BME280;46263;44.726;10.396;2024-03-02T02:23:01;99588.84;;;15.27;100.00
60417;BME280;46263;44.726;10.396;2024-03-02T02:25:28;99580.81;;;15.23;100.00
60417;BME280;46263;44.726;10.396;2024-03-02T02:27:54;99576.28;;;15.28;100.00
60417;BME280;46263;44.726;10.396;2024-03-02T02:30:30;99576.69;;;15.24;100.00
60417;BME280;46263;44.726;10.396;2024-03-02T02:32:56;99569.56;;;15.23;100.00
60417;BME280;46263;44.726;10.396;2024-03-02T02:35:22;99575.69;;;15.29;100.00
60417;BME280;46263;44.726;10.396;2024-03-02T02:37:50;99574.38;;;15.30;100.00
60417;BME280;46263;44.726;10.396;2024-03-02T02:40:17;99569.31;;;15.29;100.00
60417;BME280;46263;44.726;10.396;2024-03-02T02:42:44;99578.19;;;15.25;100.00
60417;BME280;46263;44.726;10.396;2024-03-02T02:45:09;99570.84;;;15.22;100.00
60417;BME280;46263;44.726;10.396;2024-03-02T02:47:39;99572.16;;;15.21;100.00
60417;BME280;46263;44.726;10.396;2024-03-02T02:50:06;99577.78;;;15.21;100.00
60417;BME280;46263;44.726;10.396;2024-03-02T02:52:35;99576.69;;;15.24;100.00
60417;BME280;46263;44.726;10.396;2024-03-02T02:55:06;99568.03;;;15.22;100.00
60417;BME280;46263;44.726;10.396;2024-03-02T02:57:33;99571.78;;;15.25;100.00
60417;BME280;46263;44.726;10.396;2024-03-02T03:00:10;99564.25;;;15.27;100.00
60417;BME280;46263;44.726;10.396;2024-03-02T03:02:43;99575.50;;;15.27;100.00
60417;BME280;46263;44.726;10.396;2024-03-02T03:05:10;99577.38;;;15.32;100.00
60417;BME280;46263;44.726;10.396;2024-03-02T03:07:36;99572.69;;;15.27;100.00
60417;BME280;46263;44.726;10.396;2024-03-02T03:10:03;99567.66;;;15.18;100.00
60417;BME280;46263;44.726;10.396;2024-03-02T03:12:30;99568.22;;;15.24;100.00
60417;BME280;46263;44.726;10.396;2024-03-02T03:14:55;99572.78;;;15.13;100.00
60417;BME280;46263;44.726;10.396;2024-03-02T03:17:21;99574.50;;;15.08;100.00
60417;BME280;46263;44.726;10.396;2024-03-02T03:19:47;99569.63;;;15.09;100.00
60417;BME280;46263;44.726;10.396;2024-03-02T03:22:13;99574.28;;;15.13;100.00
60417;BME280;46263;44.726;10.396;2024-03-02T03:24:39;99572.44;;;15.09;100.00
60417;BME280;46263;44.726;10.396;2024-03-02T03:27:04;99573.56;;;15.13;100.00
60417;BME280;46263;44.726;10.396;2024-03-02T03:29:30;99580.81;;;15.16;100.00
60417;BME280;46263;44.726;10.396;2024-03-02T03:31:55;99580.09;;;15.15;100.00
60417;BME280;46263;44.726;10.396;2024-03-02T03:34:20;99580.53;;;15.05;100.00
60417;BME280;46263;44.726;10.396;2024-03-02T03:36:46;99578.81;;;15.09;100.00
60417;BME280;46263;44.726;10.396;2024-03-02T03:39:11;99582.53;;;15.12;100.00
60417;BME280;46263;44.726;10.396;2024-03-02T03:41:37;99579.34;;;15.15;100.00
60417;BME280;46263;44.726;10.396;2024-03-02T03:44:02;99577.47;;;15.17;100.00
60417;BME280;46263;44.726;10.396;2024-03-02T03:46:29;99586.06;;;15.19;100.00
60417;BME280;46263;44.726;10.396;2024-03-02T03:48:54;99582.72;;;15.13;100.00
60417;BME280;46263;44.726;10.396;2024-03-02T03:51:21;99590.19;;;15.18;100.00
60417;BME280;46263;44.726;10.396;2024-03-02T03:53:48;99587.94;;;15.17;100.00
60417;BME280;46263;44.726;10.396;2024-03-02T03:56:14;99588.94;;;15.12;100.00
60417;BME280;46263;44.726;10.396;2024-03-02T03:58:39;99591.34;;;15.15;100.00
60417;BME280;46263;44.726;10.396;2024-03-02T04:01:04;99593.25;;;15.13;100.00
60417;BME280;46263;44.726;10.396;2024-03-02T04:03:30;99592.84;;;15.16;100.00
60417;BME280;46263;44.726;10.396;2024-03-02T04:05:56;99595.47;;;15.14;100.00
60417;BME280;46263;44.726;10.396;2024-03-02T04:08:21;99598.50;;;15.09;100.00
60417;BME280;46263;44.726;10.396;2024-03-02T04:10:47;99592.50;;;15.13;100.00
60417;BME280;46263;44.726;10.396;2024-03-02T04:13:12;99597.78;;;15.09;100.00
60417;BME280;46263;44.726;10.396;2024-03-02T04:15:38;99607.88;;;15.12;100.00
60417;BME280;46263;44.726;10.396;2024-03-02T04:18:03;99611.09;;;15.08;100.00
60417;BME280;46263;44.726;10.396;2024-03-02T04:20:29;99607.53;;;15.08;100.00
60417;BME280;46263;44.726;10.396;2024-03-02T04:22:55;99600.00;;;15.10;100.00
60417;BME280;46263;44.726;10.396;2024-03-02T04:25:21;99605.69;;;15.03;100.00
60417;BME280;46263;44.726;10.396;2024-03-02T04:27:46;99607.38;;;15.06;100.00
60417;BME280;46263;44.726;10.396;2024-03-02T04:30:12;99613.34;;;15.10;100.00
60417;BME280;46263;44.726;10.396;2024-03-02T04:32:38;99615.78;;;15.13;100.00
60417;BME280;46263;44.726;10.396;2024-03-02T04:35:04;99610.34;;;15.08;100.00
60417;BME280;46263;44.726;10.396;2024-03-02T04:37:33;99621.44;;;15.06;100.00
60417;BME280;46263;44.726;10.396;2024-03-02T04:39:58;99615.78;;;15.13;100.00
60417;BME280;46263;44.726;10.396;2024-03-02T04:42:23;99623.84;;;15.09;100.00
60417;BME280;46263;44.726;10.396;2024-03-02T04:44:49;99617.41;;;15.16;100.00
60417;BME280;46263;44.726;10.396;2024-03-02T04:47:15;99619.09;;;15.19;100.00
60417;BME280;46263;44.726;10.396;2024-03-02T04:49:40;99618.91;;;15.17;100.00
60417;BME280;46263;44.726;10.396;2024-03-02T04:52:06;99623.81;;;15.16;100.00
60417;BME280;46263;44.726;10.396;2024-03-02T04:54:31;99620.22;;;15.16;100.00
60417;BME280;46263;44.726;10.396;2024-03-02T04:56:57;99624.53;;;15.17;100.00
60417;BME280;46263;44.726;10.396;2024-03-02T04:59:23;99619.13;;;15.12;100.00
60417;BME280;46263;44.726;10.396;2024-03-02T05:01:49;99620.44;;;15.11;100.00
60417;BME280;46263;44.726;10.396;2024-03-02T05:04:14;99622.34;;;15.08;100.00
60417;BME280;46263;44.726;10.396;2024-03-02T05:06:40;99618.41;;;15.11;100.00
60417;BME280;46263;44.726;10.396;2024-03-02T05:09:07;99631.16;;;15.12;100.00
60417;BME280;46263;44.726;10.396;2024-03-02T05:11:32;99630.41;;;15.12;100.00
60417;BME280;46263;44.726;10.396;2024-03-02T05:14:05;99641.25;;;15.15;100.00
60417;BME280;46263;44.726;10.396;2024-03-02T05:16:39;99640.84;;;15.18;100.00
60417;BME280;46263;44.726;10.396;2024-03-02T05:19:06;99641.63;;;15.19;100.00
60417;BME280;46263;44.726;10.396;2024-03-02T05:21:32;99637.53;;;15.13;100.00
60417;BME280;46263;44.726;10.396;2024-03-02T05:23:58;99641.09;;;15.13;100.00
60417;BME280;46263;44.726;10.396;2024-03-02T05:26:24;99636.97;;;15.14;100.00
60417;BME280;46263;44.726;10.396;2024-03-02T05:28:50;99647.06;;;15.17;100.00
60417;BME280;46263;44.726;10.396;2024-03-02T05:31:15;99653.69;;;15.12;100.00
60417;BME280;46263;44.726;10.396;2024-03-02T05:33:42;99645.56;;;15.16;100.00
60417;BME280;46263;44.726;10.396;2024-03-02T05:36:07;99654.00;;;15.16;100.00
60417;BME280;46263;44.726;10.396;2024-03-02T05:38:36;99659.09;;;15.17;100.00
60417;BME280;46263;44.726;10.396;2024-03-02T05:41:02;99654.94;;;15.18;100.00
60417;BME280;46263;44.726;10.396;2024-03-02T05:43:27;99657.41;;;15.14;100.00
60417;BME280;46263;44.726;10.396;2024-03-02T05:45:53;99660.41;;;15.16;100.00
60417;BME280;46263;44.726;10.396;2024-03-02T05:48:19;99666.44;;;15.13;100.00
60417;BME280;46263;44.726;10.396;2024-03-02T05:50:44;99669.66;;;15.10;100.00
60417;BME280;46263;44.726;10.396;2024-03-02T05:53:10;99669.47;;;15.08;100.00
60417;BME280;46263;44.726;10.396;2024-03-02T05:55:35;99670.56;;;15.12;100.00
60417;BME280;46263;44.726;10.396;2024-03-02T05:58:01;99668.47;;;15.13;100.00
60417;BME280;46263;44.726;10.396;2024-03-02T06:00:32;99670.75;;;15.14;100.00
60417;BME280;46263;44.726;10.396;2024-03-02T06:02:58;99679.97;;;15.07;100.00
60417;BME280;46263;44.726;10.396;2024-03-02T06:05:24;99677.31;;;15.09;100.00
60417;BME280;46263;44.726;10.396;2024-03-02T06:07:50;99683.41;;;14.98;100.00
60417;BME280;46263;44.726;10.396;2024-03-02T06:10:16;99680.34;;;15.04;100.00
60417;BME280;46263;44.726;10.396;2024-03-02T06:12:42;99681.50;;;15.01;100.00
60417;BME280;46263;44.726;10.396;2024-03-02T06:15:09;99681.84;;;15.05;100.00
60417;BME280;46263;44.726;10.396;2024-03-02T06:17:37;99682.78;;;15.07;100.00
60417;BME280;46263;44.726;10.396;2024-03-02T06:20:03;99698.91;;;15.07;100.00
60417;BME280;46263;44.726;10.396;2024-03-02T06:22:29;99690.66;;;15.09;100.00
60417;BME280;46263;44.726;10.396;2024-03-02T06:24:54;99692.91;;;15.10;100.00
60417;BME280;46263;44.726;10.396;2024-03-02T06:27:20;99689.91;;;15.08;100.00
60417;BME280;46263;44.726;10.396;2024-03-02T06:29:45;99698.91;;;15.07;100.00
60417;BME280;46263;44.726;10.396;2024-03-02T06:32:11;99704.16;;;15.10;100.00
60417;BME280;46263;44.726;10.396;2024-03-02T06:34:36;99702.84;;;15.11;100.00
60417;BME280;46263;44.726;10.396;2024-03-02T06:37:02;99702.88;;;15.04;100.00
60417;BME280;46263;44.726;10.396;2024-03-02T06:39:27;99697.22;;;15.11;100.00
60417;BME280;46263;44.726;10.396;2024-03-02T06:41:53;99714.13;;;15.04;100.00
60417;BME280;46263;44.726;10.396;2024-03-02T06:44:18;99704.72;;;15.09;100.00
60417;BME280;46263;44.726;10.396;2024-03-02T06:46:43;99716.94;;;15.04;100.00
60417;BME280;46263;44.726;10.396;2024-03-02T06:49:09;99722.75;;;15.06;100.00
60417;BME280;46263;44.726;10.396;2024-03-02T06:51:37;99716.00;;;15.09;100.00
60417;BME280;46263;44.726;10.396;2024-03-02T06:54:03;99728.00;;;15.09;100.00
60417;BME280;46263;44.726;10.396;2024-03-02T06:56:28;99729.84;;;15.14;100.00
60417;BME280;46263;44.726;10.396;2024-03-02T06:58:54;99731.34;;;15.15;100.00
60417;BME280;46263;44.726;10.396;2024-03-02T07:01:19;99729.84;;;15.14;100.00
60417;BME280;46263;44.726;10.396;2024-03-02T07:03:50;99730.41;;;15.13;100.00
60417;BME280;46263;44.726;10.396;2024-03-02T07:06:16;99736.44;;;15.09;100.00
60417;BME280;46263;44.726;10.396;2024-03-02T07:08:41;99735.50;;;15.14;100.00
60417;BME280;46263;44.726;10.396;2024-03-02T07:11:07;99732.09;;;15.15;100.00
60417;BME280;46263;44.726;10.396;2024-03-02T07:13:32;99739.97;;;15.17;100.00
60417;BME280;46263;44.726;10.396;2024-03-02T07:15:58;99739.22;;;15.16;100.00
60417;BME280;46263;44.726;10.396;2024-03-02T07:18:32;99746.00;;;15.13;100.00
60417;BME280;46263;44.726;10.396;2024-03-02T07:20:59;99744.13;;;15.09;100.00
60417;BME280;46263;44.726;10.396;2024-03-02T07:23:26;99751.28;;;15.10;100.00
60417;BME280;46263;44.726;10.396;2024-03-02T07:25:53;99758.94;;;15.09;100.00
60417;BME280;46263;44.726;10.396;2024-03-02T07:28:25;99763.06;;;15.15;100.00
60417;BME280;46263;44.726;10.396;2024-03-02T07:31:04;99761.16;;;15.18;100.00
60417;BME280;46263;44.726;10.396;2024-03-02T07:33:33;99758.34;;;15.18;100.00
60417;BME280;46263;44.726;10.396;2024-03-02T07:35:59;99763.97;;;15.18;100.00
60417;BME280;46263;44.726;10.396;2024-03-02T07:38:26;99768.88;;;15.17;100.00
60417;BME280;46263;44.726;10.396;2024-03-02T07:40:52;99770.19;;;15.16;100.00
60417;BME280;46263;44.726;10.396;2024-03-02T07:43:18;99780.53;;;15.14;100.00
60417;BME280;46263;44.726;10.396;2024-03-02T07:45:48;99769.28;;;15.14;100.00
60417;BME280;46263;44.726;10.396;2024-03-02T07:48:14;99773.94;;;15.19;100.00
60417;BME280;46263;44.726;10.396;2024-03-02T07:50:40;99781.78;;;15.20;100.00
60417;BME280;46263;44.726;10.396;2024-03-02T07:53:05;99780.69;;;15.23;100.00
60417;BME280;46263;44.726;10.396;2024-03-02T07:55:33;99778.06;;;15.25;100.00
60417;BME280;46263;44.726;10.396;2024-03-02T07:57:58;99779.56;;;15.26;100.00
60417;BME280;46263;44.726;10.396;2024-03-02T08:00:24;99790.25;;;15.20;100.00
60417;BME280;46263;44.726;10.396;2024-03-02T08:02:51;99785.00;;;15.24;100.00
60417;BME280;46263;44.726;10.396;2024-03-02T08:05:17;99784.81;;;15.22;100.00
60417;BME280;46263;44.726;10.396;2024-03-02T08:07:46;99791.56;;;15.27;100.00
60417;BME280;46263;44.726;10.396;2024-03-02T08:10:12;99797.38;;;15.29;100.00
60417;BME280;46263;44.726;10.396;2024-03-02T08:12:38;99792.31;;;15.27;100.00
60417;BME280;46263;44.726;10.396;2024-03-02T08:15:04;99795.31;;;15.29;100.00
60417;BME280;46263;44.726;10.396;2024-03-02T08:17:30;99794.38;;;15.34;100.00
60417;BME280;46263;44.726;10.396;2024-03-02T08:19:56;99796.81;;;15.30;100.00
60417;BME280;46263;44.726;10.396;2024-03-02T08:22:22;99806.38;;;15.35;100.00
60417;BME280;46263;44.726;10.396;2024-03-02T08:24:48;99808.44;;;15.34;100.00
60417;BME280;46263;44.726;10.396;2024-03-02T08:27:14;99808.97;;;15.40;100.00
60417;BME280;46263;44.726;10.396;2024-03-02T08:29:40;99808.97;;;15.40;100.00
60417;BME280;46263;44.726;10.396;2024-03-02T08:32:06;99814.59;;;15.40;100.00
60417;BME280;46263;44.726;10.396;2024-03-02T08:34:32;99807.41;;;15.47;100.00
60417;BME280;46263;44.726;10.396;2024-03-02T08:37:01;99806.16;;;15.40;100.00
60417;BME280;46263;44.726;10.396;2024-03-02T08:39:27;99813.84;;;15.40;100.00
60417;BME280;46263;44.726;10.396;2024-03-02T08:41:52;99817.03;;;15.36;100.00
60417;BME280;46263;44.726;10.396;2024-03-02T08:44:18;99810.88;;;15.38;100.00
60417;BME280;46263;44.726;10.396;2024-03-02T08:46:44;99816.09;;;15.41;100.00
60417;BME280;46263;44.726;10.396;2024-03-02T08:49:10;99810.47;;;15.41;100.00
60417;BME280;46263;44.726;10.396;2024-03-02T08:51:35;99822.84;;;15.46;100.00
60417;BME280;46263;44.726;10.396;2024-03-02T08:54:00;99820.94;;;15.48;100.00
60417;BME280;46263;44.726;10.396;2024-03-02T08:56:26;99831.09;;;15.44;100.00
60417;BME280;46263;44.726;10.396;2024-03-02T08:58:52;99828.81;;;15.50;100.00
60417;BME280;46263;44.726;10.396;2024-03-02T09:01:18;99819.63;;;15.49;100.00
60417;BME280;46263;44.726;10.396;2024-03-02T09:03:45;99832.56;;;15.52;100.00
60417;BME280;46263;44.726;10.396;2024-03-02T09:06:11;99826.19;;;15.52;100.00
60417;BME280;46263;44.726;10.396;2024-03-02T09:08:36;99835.94;;;15.58;100.00
60417;BME280;46263;44.726;10.396;2024-03-02T09:11:04;99834.78;;;15.61;100.00
60417;BME280;46263;44.726;10.396;2024-03-02T09:13:31;99829.66;;;15.67;100.00
60417;BME280;46263;44.726;10.396;2024-03-02T09:15:56;99843.75;;;15.67;100.00
60417;BME280;46263;44.726;10.396;2024-03-02T09:18:22;99831.00;;;15.66;100.00
60417;BME280;46263;44.726;10.396;2024-03-02T09:20:47;99834.75;;;15.69;100.00
60417;BME280;46263;44.726;10.396;2024-03-02T09:23:13;99837.78;;;15.63;100.00
60417;BME280;46263;44.726;10.396;2024-03-02T09:25:38;99837.75;;;15.71;100.00
60417;BME280;46263;44.726;10.396;2024-03-02T09:28:04;99831.00;;;15.66;100.00
60417;BME280;46263;44.726;10.396;2024-03-02T09:30:29;99841.50;;;15.73;100.00
60417;BME280;46263;44.726;10.396;2024-03-02T09:32:55;99847.13;;;15.73;100.00
60417;BME280;46263;44.726;10.396;2024-03-02T09:35:20;99846.34;;;15.80;100.00
60417;BME280;46263;44.726;10.396;2024-03-02T09:37:46;99845.22;;;15.76;100.00
60417;BME280;46263;44.726;10.396;2024-03-02T09:40:13;99840.69;;;15.80;100.00
60417;BME280;46263;44.726;10.396;2024-03-02T09:42:39;99843.69;;;15.82;100.00
60417;BME280;46263;44.726;10.396;2024-03-02T09:45:06;99846.34;;;15.80;100.00
60417;BME280;46263;44.726;10.396;2024-03-02T09:47:31;99839.59;;;15.76;100.00
60417;BME280;46263;44.726;10.396;2024-03-02T09:49:57;99845.53;;;15.87;100.00
60417;BME280;46263;44.726;10.396;2024-03-02T09:52:23;99840.28;;;15.91;100.00
60417;BME280;46263;44.726;10.396;2024-03-02T09:54:48;99847.38;;;15.92;100.00
60417;BME280;46263;44.726;10.396;2024-03-02T09:57:15;99851.19;;;15.87;100.00
60417;BME280;46263;44.726;10.396;2024-03-02T09:59:41;99852.09;;;15.90;100.00
60417;BME280;46263;44.726;10.396;2024-03-02T10:02:06;99855.22;;;16.01;100.00
60417;BME280;46263;44.726;10.396;2024-03-02T10:04:33;99853.31;;;16.03;100.00
60417;BME280;46263;44.726;10.396;2024-03-02T10:07:15;99862.72;;;16.06;100.00
60417;BME280;46263;44.726;10.396;2024-03-02T10:09:43;99861.00;;;16.10;100.00
60417;BME280;46263;44.726;10.396;2024-03-02T10:12:10;99858.94;;;16.11;98.77
60417;BME280;46263;44.726;10.396;2024-03-02T10:14:37;99864.38;;;16.09;99.20
60417;BME280;46263;44.726;10.396;2024-03-02T10:17:04;99860.25;;;16.10;99.41
60417;BME280;46263;44.726;10.396;2024-03-02T10:19:31;99862.72;;;16.06;100.00
60417;BME280;46263;44.726;10.396;2024-03-02T10:22:01;99863.81;;;16.10;100.00
60417;BME280;46263;44.726;10.396;2024-03-02T10:24:36;99875.84;;;16.11;100.00
60417;BME280;46263;44.726;10.396;2024-03-02T10:27:33;99874.53;;;16.12;100.00
60417;BME280;46263;44.726;10.396;2024-03-02T10:29:59;99860.44;;;16.12;100.00
60417;BME280;46263;44.726;10.396;2024-03-02T10:32:27;99865.16;;;16.09;100.00
60417;BME280;46263;44.726;10.396;2024-03-02T10:34:53;99858.19;;;16.10;100.00
60417;BME280;46263;44.726;10.396;2024-03-02T10:37:19;99861.16;;;16.12;100.00
60417;BME280;46263;44.726;10.396;2024-03-02T10:39:47;99866.81;;;16.12;99.80
60417;BME280;46263;44.726;10.396;2024-03-02T10:42:14;99861.16;;;16.12;98.98
60417;BME280;46263;44.726;10.396;2024-03-02T10:44:40;99860.75;;;16.16;99.31
60417;BME280;46263;44.726;10.396;2024-03-02T10:47:06;99867.56;;;16.13;99.26
60417;BME280;46263;44.726;10.396;2024-03-02T10:49:33;99874.72;;;16.14;99.95
60417;BME280;46263;44.726;10.396;2024-03-02T10:51:59;99867.97;;;16.09;99.46
60417;BME280;46263;44.726;10.396;2024-03-02T10:54:25;99867.19;;;16.09;100.00
60417;BME280;46263;44.726;10.396;2024-03-02T10:57:03;99865.69;;;16.08;98.98
60417;BME280;46263;44.726;10.396;2024-03-02T10:59:35;99872.13;;;16.01;98.80
60417;BME280;46263;44.726;10.396;2024-03-02T11:02:02;99869.09;;;16.06;99.62
60417;BME280;46263;44.726;10.396;2024-03-02T11:04:30;99875.72;;;16.01;98.32
60417;BME280;46263;44.726;10.396;2024-03-02T11:09:27;99866.88;;;16.05;99.40
60417;BME280;46263;44.726;10.396;2024-03-02T11:14:34;99874.41;;;16.02;100.00
60417;BME280;46263;44.726;10.396;2024-03-02T11:17:02;99870.41;;;16.05;100.00
60417;BME280;46263;44.726;10.396;2024-03-02T11:19:29;99871.91;;;16.06;100.00
60417;BME280;46263;44.726;10.396;2024-03-02T11:21:56;99861.22;;;16.05;100.00
60417;BME280;46263;44.726;10.396;2024-03-02T11:26:50;99850.69;;;16.05;100.00
60417;BME280;46263;44.726;10.396;2024-03-02T11:29:46;99852.19;;;16.06;100.00
60417;BME280;46263;44.726;10.396;2024-03-02T11:32:21;99850.84;;;16.15;100.00
60417;BME280;46263;44.726;10.396;2024-03-02T11:34:50;99844.25;;;16.12;100.00
60417;BME280;46263;44.726;10.396;2024-03-02T11:37:17;99844.94;;;16.20;100.00
60417;BME280;46263;44.726;10.396;2024-03-02T11:39:47;99855.81;;;16.24;100.00
60417;BME280;46263;44.726;10.396;2024-03-02T11:42:15;99850.34;;;16.26;100.00
60417;BME280;46263;44.726;10.396;2024-03-02T11:44:47;99843.81;;;16.23;99.91
60417;BME280;46263;44.726;10.396;2024-03-02T11:47:17;99847.94;;;16.22;99.88
60417;BME280;46263;44.726;10.396;2024-03-02T11:49:50;99847.22;;;16.22;100.00
60417;BME280;46263;44.726;10.396;2024-03-02T11:52:17;99851.69;;;16.25;100.00
60417;BME280;46263;44.726;10.396;2024-03-02T11:54:44;99857.91;;;16.23;100.00
60417;BME280;46263;44.726;10.396;2024-03-02T11:57:32;99845.88;;;16.23;99.89
60417;BME280;46263;44.726;10.396;2024-03-02T11:59:57;99843.06;;;16.23;100.00
60417;BME280;46263;44.726;10.396;2024-03-02T12:02:24;99842.31;;;16.22;100.00
60417;BME280;46263;44.726;10.396;2024-03-02T12:04:50;99841.72;;;16.24;100.00
60417;BME280;46263;44.726;10.396;2024-03-02T12:07:22;99833.63;;;16.28;100.00
60417;BME280;46263;44.726;10.396;2024-03-02T12:10:01;99839.81;;;16.34;100.00
60417;BME280;46263;44.726;10.396;2024-03-02T12:12:28;99831.69;;;16.38;100.00
60417;BME280;46263;44.726;10.396;2024-03-02T12:14:53;99825.06;;;16.43;99.68
60417;BME280;46263;44.726;10.396;2024-03-02T12:17:21;99828.66;;;16.43;100.00
60417;BME280;46263;44.726;10.396;2024-03-02T12:19:47;99827.72;;;16.41;100.00
60417;BME280;46263;44.726;10.396;2024-03-02T12:22:13;99814.19;;;16.39;100.00
60417;BME280;46263;44.726;10.396;2024-03-02T12:24:39;99814.28;;;16.49;100.00
60417;BME280;46263;44.726;10.396;2024-03-02T12:27:07;99819.94;;;16.49;100.00
60417;BME280;46263;44.726;10.396;2024-03-02T12:29:34;99825.56;;;16.49;100.00
60417;BME280;46263;44.726;10.396;2024-03-02T12:31:59;99825.41;;;16.47;100.00
60417;BME280;46263;44.726;10.396;2024-03-02T12:34:25;99831.06;;;16.47;100.00
60417;BME280;46263;44.726;10.396;2024-03-02T12:36:51;99825.94;;;16.53;100.00
60417;BME280;46263;44.726;10.396;2024-03-02T12:39:21;99824.78;;;16.56;99.65
60417;BME280;46263;44.726;10.396;2024-03-02T12:41:50;99813.13;;;16.52;99.81
60417;BME280;46263;44.726;10.396;2024-03-02T12:44:19;99816.31;;;16.56;100.00
60417;BME280;46263;44.726;10.396;2024-03-02T12:46:45;99816.31;;;16.56;100.00
60417;BME280;46263;44.726;10.396;2024-03-02T12:49:13;99806.25;;;16.62;100.00